createdAt,value
2023-05-10T00:02:04.294Z,98767.81
2023-05-10T00:04:31.348Z,98765.13
2023-05-10T00:06:58.321Z,98763.65
2023-05-10T00:09:25.446Z,98759.81
2023-05-10T00:11:52.323Z,98755.61
2023-05-10T00:14:19.634Z,98754.16
2023-05-10T00:16:46.811Z,98755.46
2023-05-10T00:19:14.174Z,98753.85
2023-05-10T00:21:41.186Z,98755.08
2023-05-10T00:24:08.224Z,98756.85
2023-05-10T00:26:35.282Z,98756.81
2023-05-10T00:29:02.125Z,98756.64
2023-05-10T00:31:29.472Z,98752.14
2023-05-10T00:33:57.146Z,98754.31
2023-05-10T00:36:24.484Z,98752.54
2023-05-10T00:38:51.774Z,98752.90
2023-05-10T00:41:18.975Z,98750.80
2023-05-10T00:43:46.168Z,98748.63
2023-05-10T00:46:15.539Z,98744.73
2023-05-10T00:48:43.199Z,98742.69
2023-05-10T00:51:10.445Z,98738.56
2023-05-10T00:53:37.731Z,98740.64
2023-05-10T00:56:05.366Z,98740.04
2023-05-10T00:58:32.500Z,98738.30
2023-05-10T01:01:00.115Z,98738.09
2023-05-10T01:03:27.724Z,98735.11
2023-05-10T01:05:55.014Z,98735.39
2023-05-10T01:08:23.067Z,98730.95
2023-05-10T01:10:54.076Z,98732.89
2023-05-10T01:13:47.766Z,98729.73
2023-05-10T01:16:14.952Z,98728.02
2023-05-10T01:18:46.157Z,98725.89
2023-05-10T01:21:34.703Z,98719.00
2023-05-10T01:24:24.776Z,98719.94
2023-05-10T01:26:52.022Z,98714.79
2023-05-10T01:29:34.847Z,98713.20
2023-05-10T01:32:14.296Z,98713.95
2023-05-10T01:34:51.757Z,98710.19
2023-05-10T01:37:26.511Z,98711.52
2023-05-10T01:40:04.222Z,98711.09
2023-05-10T01:42:40.643Z,98705.94
2023-05-10T01:45:08.091Z,98707.85
2023-05-10T01:48:03.807Z,98704.34
2023-05-10T01:50:32.173Z,98705.98
2023-05-10T01:53:01.814Z,98703.14
2023-05-10T01:55:33.373Z,98705.06
2023-05-10T01:58:06.105Z,98707.48
2023-05-10T02:00:34.660Z,98701.08
2023-05-10T02:03:07.051Z,98702.89
2023-05-10T02:05:36.492Z,98699.80
2023-05-10T02:08:07.133Z,98696.17
2023-05-10T02:10:35.960Z,98695.48
2023-05-10T02:13:04.873Z,98694.19
2023-05-10T02:15:33.543Z,98695.66
2023-05-10T02:18:02.202Z,98691.11
2023-05-10T02:20:30.929Z,98690.48
2023-05-10T02:22:59.904Z,98690.16
2023-05-10T02:25:27.708Z,98689.30
2023-05-10T02:27:58.091Z,98687.40
2023-05-10T02:30:26.476Z,98684.84
2023-05-10T02:32:54.471Z,98684.61
2023-05-10T02:35:23.239Z,98684.33
2023-05-10T02:37:51.727Z,98683.02
2023-05-10T02:40:20.609Z,98681.32
2023-05-10T02:42:50.138Z,98679.38
2023-05-10T02:45:21.906Z,98677.38
2023-05-10T02:47:50.044Z,98682.94
2023-05-10T02:50:17.177Z,98680.23
2023-05-10T02:52:48.895Z,98683.12
2023-05-10T02:55:18.445Z,98685.09
2023-05-10T02:57:53.093Z,98681.17
2023-05-10T03:00:20.548Z,98683.36
2023-05-10T03:02:47.520Z,98688.76
2023-05-10T03:05:14.656Z,98691.54
2023-05-10T03:07:41.780Z,98689.42
2023-05-10T03:10:09.779Z,98688.85
2023-05-10T03:13:07.778Z,98690.88
2023-05-10T03:15:59.855Z,98689.61
2023-05-10T03:18:38.456Z,98691.64
2023-05-10T03:21:12.004Z,98691.20
2023-05-10T03:23:51.748Z,98690.60
2023-05-10T03:26:27.709Z,98686.14
2023-05-10T03:28:55.987Z,98687.73
2023-05-10T03:31:23.312Z,98685.70
2023-05-10T03:33:51.859Z,98686.55
2023-05-10T03:36:19.810Z,98684.35
2023-05-10T03:38:46.663Z,98679.51
2023-05-10T03:41:13.525Z,98675.15
2023-05-10T03:43:40.497Z,98672.52
2023-05-10T03:46:07.691Z,98676.48
2023-05-10T03:48:34.643Z,98676.16
2023-05-10T03:51:01.610Z,98676.45
2023-05-10T03:53:28.972Z,98674.13
2023-05-10T03:55:56.015Z,98672.66
2023-05-10T03:58:23.326Z,98670.65
2023-05-10T04:00:50.406Z,98676.36
2023-05-10T04:03:17.648Z,98675.00
2023-05-10T04:05:44.817Z,98678.63
2023-05-10T04:08:11.932Z,98679.21
2023-05-10T04:10:38.766Z,98678.05
2023-05-10T04:13:05.750Z,98677.41
2023-05-10T04:15:32.653Z,98678.47
2023-05-10T04:17:59.614Z,98677.82
2023-05-10T04:20:26.528Z,98678.34
2023-05-10T04:22:53.614Z,98677.97
2023-05-10T04:25:20.728Z,98679.09
2023-05-10T04:27:47.806Z,98676.64
2023-05-10T04:30:15.201Z,98678.32
2023-05-10T04:32:42.557Z,98678.48
2023-05-10T04:35:12.018Z,98675.67
2023-05-10T04:37:38.968Z,98678.27
2023-05-10T04:40:07.453Z,98676.30
2023-05-10T04:42:34.443Z,98673.38
2023-05-10T04:45:01.381Z,98675.43
2023-05-10T04:47:28.421Z,98678.91
2023-05-10T04:49:55.270Z,98681.63
2023-05-10T04:52:22.432Z,98676.52
2023-05-10T04:54:49.447Z,98683.95
2023-05-10T04:57:16.510Z,98680.88
2023-05-10T04:59:43.867Z,98681.86
2023-05-10T05:02:10.840Z,98679.25
2023-05-10T05:04:48.449Z,98679.12
2023-05-10T05:07:24.370Z,98676.79
2023-05-10T05:09:59.385Z,98674.70
2023-05-10T05:12:49.280Z,98674.89
2023-05-10T05:15:17.903Z,98677.19
2023-05-10T05:17:45.486Z,98674.38
2023-05-10T05:20:12.973Z,98670.34
2023-05-10T05:22:40.608Z,98669.71
2023-05-10T05:25:08.293Z,98679.28
2023-05-10T05:27:35.542Z,98681.15
2023-05-10T05:30:03.145Z,98679.87
2023-05-10T05:32:30.526Z,98682.02
2023-05-10T05:34:57.909Z,98679.14
2023-05-10T05:37:26.062Z,98679.36
2023-05-10T05:39:53.064Z,98672.16
2023-05-10T05:42:20.732Z,98671.46
2023-05-10T05:44:48.328Z,98675.13
2023-05-10T05:47:15.540Z,98675.00
2023-05-10T05:49:42.520Z,98674.73
2023-05-10T05:52:09.623Z,98675.27
2023-05-10T05:54:36.652Z,98673.45
2023-05-10T05:57:04.048Z,98676.52
2023-05-10T05:59:31.107Z,98676.40
2023-05-10T06:01:58.205Z,98671.20
2023-05-10T06:04:25.867Z,98671.44
2023-05-10T06:06:52.730Z,98668.04
2023-05-10T06:09:20.174Z,98665.04
2023-05-10T06:11:47.975Z,98663.34
2023-05-10T06:14:14.980Z,98665.73
2023-05-10T06:16:42.589Z,98669.66
2023-05-10T06:19:09.723Z,98668.48
2023-05-10T06:21:36.890Z,98665.16
2023-05-10T06:24:04.350Z,98661.12
2023-05-10T06:26:31.863Z,98665.39
2023-05-10T06:28:58.977Z,98669.30
2023-05-10T06:31:26.276Z,98670.55
2023-05-10T06:33:56.568Z,98670.65
2023-05-10T06:36:25.875Z,98668.39
2023-05-10T06:38:52.846Z,98666.55
2023-05-10T06:41:19.934Z,98664.77
2023-05-10T06:43:47.044Z,98662.30
2023-05-10T06:46:15.038Z,98658.29
2023-05-10T06:48:43.138Z,98656.73
2023-05-10T06:51:10.495Z,98656.40
2023-05-10T06:53:37.575Z,98654.95
2023-05-10T06:56:05.242Z,98657.22
2023-05-10T06:58:34.061Z,98653.77
2023-05-10T07:01:05.385Z,98655.14
2023-05-10T07:03:34.186Z,98653.61
2023-05-10T07:06:05.242Z,98652.06
2023-05-10T07:08:33.214Z,98647.61
2023-05-10T07:11:05.324Z,98649.79
2023-05-10T07:13:33.358Z,98650.64
2023-05-10T07:16:01.170Z,98652.30
2023-05-10T07:18:28.216Z,98648.70
2023-05-10T07:20:55.265Z,98642.06
2023-05-10T07:23:22.750Z,98643.08
2023-05-10T07:25:52.822Z,98646.52
2023-05-10T07:28:20.996Z,98647.52
2023-05-10T07:30:48.854Z,98646.19
2023-05-10T07:33:17.303Z,98641.64
2023-05-10T07:35:45.098Z,98637.29
2023-05-10T07:38:12.449Z,98635.34
2023-05-10T07:40:47.686Z,98643.41
2023-05-10T07:43:21.509Z,98635.89
2023-05-10T07:45:48.846Z,98634.23
2023-05-10T07:48:15.925Z,98637.08
2023-05-10T07:50:43.142Z,98628.94
2023-05-10T07:53:09.976Z,98630.73
2023-05-10T07:55:37.273Z,98627.44
2023-05-10T07:58:04.356Z,98627.89
2023-05-10T08:00:31.317Z,98622.70
2023-05-10T08:02:58.278Z,98623.71
2023-05-10T08:05:25.315Z,98622.64
2023-05-10T08:07:52.460Z,98622.91
2023-05-10T08:10:28.313Z,98630.95
2023-05-10T08:13:03.695Z,98626.31
2023-05-10T08:15:30.587Z,98622.52
2023-05-10T08:17:57.691Z,98622.89
2023-05-10T08:20:24.999Z,98626.73
2023-05-10T08:22:52.485Z,98628.15
2023-05-10T08:25:20.021Z,98625.83
2023-05-10T08:27:47.197Z,98625.02
2023-05-10T08:30:24.576Z,98624.91
2023-05-10T08:32:52.091Z,98622.35
2023-05-10T08:35:19.418Z,98627.46
2023-05-10T08:37:46.854Z,98624.74
2023-05-10T08:40:15.285Z,98623.39
2023-05-10T08:42:47.076Z,98622.86
2023-05-10T08:45:17.191Z,98621.40
2023-05-10T08:47:45.263Z,98622.70
2023-05-10T08:50:13.349Z,98620.46
2023-05-10T08:52:42.170Z,98623.48
2023-05-10T08:55:09.741Z,98625.06
2023-05-10T08:57:37.697Z,98621.13
2023-05-10T09:00:12.722Z,98622.41
2023-05-10T09:02:51.787Z,98621.80
2023-05-10T09:05:39.296Z,98617.63
2023-05-10T09:08:08.056Z,98618.92
2023-05-10T09:10:35.475Z,98616.04
2023-05-10T09:13:03.490Z,98618.27
2023-05-10T09:15:30.692Z,98614.38
2023-05-10T09:17:59.364Z,98615.65
2023-05-10T09:20:26.491Z,98614.45
2023-05-10T09:22:53.478Z,98612.42
2023-05-10T09:25:20.781Z,98612.94
2023-05-10T09:27:49.012Z,98604.19
2023-05-10T09:30:33.910Z,98607.10
2023-05-10T09:33:02.094Z,98601.35
2023-05-10T09:35:31.500Z,98605.74
2023-05-10T09:38:01.752Z,98607.98
2023-05-10T09:40:30.700Z,98607.95
2023-05-10T09:43:07.179Z,98606.59
2023-05-10T09:45:38.150Z,98614.02
2023-05-10T09:48:07.212Z,98614.75
2023-05-10T09:50:35.469Z,98618.39
2023-05-10T09:53:05.131Z,98618.00
2023-05-10T09:55:46.151Z,98612.61
2023-05-10T09:58:15.634Z,98611.08
2023-05-10T10:00:49.016Z,98610.11
2023-05-10T10:03:39.933Z,98609.58
2023-05-10T10:06:18.744Z,98609.00
2023-05-10T10:08:51.337Z,98604.16
2023-05-10T10:11:18.848Z,98601.86
2023-05-10T10:13:46.521Z,98596.36
2023-05-10T10:16:14.163Z,98602.79
2023-05-10T10:18:42.530Z,98598.85
2023-05-10T10:21:10.525Z,98601.02
2023-05-10T10:23:37.610Z,98592.08
2023-05-10T10:26:06.128Z,98592.44
2023-05-10T10:28:54.855Z,98587.30
2023-05-10T10:31:28.347Z,98592.55
2023-05-10T10:34:05.097Z,98594.08
2023-05-10T10:36:34.519Z,98595.33
2023-05-10T10:39:04.226Z,98589.65
2023-05-10T10:41:34.422Z,98585.54
2023-05-10T10:44:30.809Z,98588.04
2023-05-10T10:47:24.544Z,98582.39
2023-05-10T10:50:05.582Z,98580.90
2023-05-10T10:52:35.144Z,98574.21
2023-05-10T10:55:09.520Z,98575.46
2023-05-10T10:57:42.516Z,98571.60
2023-05-10T11:00:39.112Z,98569.97
2023-05-10T11:03:16.081Z,98564.38
2023-05-10T11:05:52.535Z,98556.02
2023-05-10T11:08:36.449Z,98555.22
2023-05-10T11:11:10.499Z,98557.84
2023-05-10T11:13:51.429Z,98556.98
2023-05-10T11:16:21.629Z,98553.57
2023-05-10T11:18:54.996Z,98557.84
2023-05-10T11:21:22.448Z,98558.33
2023-05-10T11:23:52.450Z,98553.54
2023-05-10T11:26:20.651Z,98556.50
2023-05-10T11:28:49.427Z,98554.90
2023-05-10T11:31:20.351Z,98549.31
2023-05-10T11:33:53.187Z,98545.73
2023-05-10T11:36:26.234Z,98551.11
2023-05-10T11:38:53.986Z,98548.16
2023-05-10T11:41:25.693Z,98548.83
2023-05-10T11:43:54.467Z,98547.02
2023-05-10T11:46:23.628Z,98543.93
2023-05-10T11:48:55.861Z,98542.84
2023-05-10T11:51:24.208Z,98548.09
2023-05-10T11:53:53.937Z,98546.64
2023-05-10T11:56:21.987Z,98546.76
2023-05-10T11:58:55.457Z,98549.02
2023-05-10T12:01:24.450Z,98548.39
2023-05-10T12:03:53.239Z,98538.42
2023-05-10T12:06:21.715Z,98546.94
2023-05-10T12:08:53.796Z,98540.81
2023-05-10T12:11:22.989Z,98542.57
2023-05-10T12:13:51.184Z,98541.39
2023-05-10T12:16:23.938Z,98538.93
2023-05-10T12:18:59.047Z,98539.48
2023-05-10T12:21:27.166Z,98544.65
2023-05-10T12:23:56.815Z,98536.95
2023-05-10T12:26:25.860Z,98539.37
2023-05-10T12:28:52.784Z,98539.95
2023-05-10T12:31:20.156Z,98537.29
2023-05-10T12:33:58.363Z,98534.16
2023-05-10T12:36:35.642Z,98531.91
2023-05-10T12:39:15.110Z,98536.63
2023-05-10T12:41:52.699Z,98533.60
2023-05-10T12:44:27.257Z,98534.63
2023-05-10T12:46:54.212Z,98534.21
2023-05-10T12:49:21.057Z,98526.96
2023-05-10T12:51:48.197Z,98523.35
2023-05-10T12:54:15.303Z,98520.93
2023-05-10T12:56:43.945Z,98517.84
2023-05-10T12:59:11.055Z,98517.54
2023-05-10T13:01:38.068Z,98515.59
2023-05-10T13:04:05.579Z,98517.89
2023-05-10T13:06:33.285Z,98515.56
2023-05-10T13:09:00.284Z,98516.39
2023-05-10T13:11:27.687Z,98522.90
2023-05-10T13:13:55.110Z,98517.26
2023-05-10T13:16:22.181Z,98516.66
2023-05-10T13:18:49.133Z,98511.75
2023-05-10T13:21:16.230Z,98511.30
2023-05-10T13:23:43.310Z,98515.70
2023-05-10T13:26:10.990Z,98515.60
2023-05-10T13:28:40.152Z,98512.50
2023-05-10T13:31:07.695Z,98506.13
2023-05-10T13:33:34.748Z,98511.30
2023-05-10T13:36:02.047Z,98504.51
2023-05-10T13:38:28.928Z,98505.54
2023-05-10T13:40:56.698Z,98502.66
2023-05-10T13:43:24.004Z,98498.83
2023-05-10T13:45:51.097Z,98496.73
2023-05-10T13:48:18.195Z,98499.52
2023-05-10T13:50:55.861Z,98494.69
2023-05-10T13:53:23.285Z,98490.17
2023-05-10T13:56:40.624Z,98489.30
2023-05-10T13:59:09.294Z,98486.37
2023-05-10T14:01:36.730Z,98488.75
2023-05-10T14:04:04.329Z,98483.33
2023-05-10T14:06:32.328Z,98478.20
2023-05-10T14:08:59.622Z,98480.74
2023-05-10T14:11:27.031Z,98478.27
2023-05-10T14:13:55.839Z,98481.21
2023-05-10T14:16:23.649Z,98479.20
2023-05-10T14:18:51.386Z,98474.67
2023-05-10T14:21:18.670Z,98477.63
2023-05-10T14:23:46.215Z,98472.63
2023-05-10T14:26:13.234Z,98475.30
2023-05-10T14:28:40.556Z,98475.36
2023-05-10T14:31:07.952Z,98476.69
2023-05-10T14:33:44.547Z,98477.23
2023-05-10T14:36:27.575Z,98477.06
2023-05-10T14:39:01.926Z,98474.14
2023-05-10T14:41:29.409Z,98475.23
2023-05-10T14:43:56.504Z,98474.62
2023-05-10T14:46:23.491Z,98471.46
2023-05-10T14:48:50.540Z,98469.91
2023-05-10T14:51:17.821Z,98468.42
2023-05-10T14:53:45.801Z,98469.69
2023-05-10T14:56:13.562Z,98470.97
2023-05-10T14:58:41.824Z,98466.25
2023-05-10T15:01:09.780Z,98469.90
2023-05-10T15:03:48.308Z,98467.06
2023-05-10T15:06:40.639Z,98473.09
2023-05-10T15:09:14.341Z,98473.77
2023-05-10T15:11:52.876Z,98477.65
2023-05-10T15:14:20.903Z,98472.88
2023-05-10T15:16:48.421Z,98470.47
2023-05-10T15:19:15.489Z,98466.86
2023-05-10T15:21:45.290Z,98468.60
2023-05-10T15:24:12.348Z,98462.58
2023-05-10T15:26:39.614Z,98463.70
2023-05-10T15:29:06.583Z,98464.03
2023-05-10T15:31:37.187Z,98459.01
2023-05-10T15:34:10.388Z,98457.06
2023-05-10T15:36:49.486Z,98456.92
2023-05-10T15:39:24.884Z,98454.67
2023-05-10T15:42:10.489Z,98464.29
2023-05-10T15:44:56.212Z,98463.45
2023-05-10T15:47:36.321Z,98465.30
2023-05-10T15:50:04.304Z,98466.71
2023-05-10T15:52:31.841Z,98468.34
2023-05-10T15:54:59.049Z,98469.52
2023-05-10T15:57:26.398Z,98468.23
2023-05-10T15:59:54.347Z,98473.84
2023-05-10T16:02:22.966Z,98471.92
2023-05-10T16:04:50.964Z,98470.51
2023-05-10T16:07:18.164Z,98474.23
2023-05-10T16:09:45.710Z,98473.41
2023-05-10T16:12:12.661Z,98470.49
2023-05-10T16:14:40.170Z,98467.35
2023-05-10T16:17:08.412Z,98465.68
2023-05-10T16:19:36.008Z,98468.88
2023-05-10T16:22:03.377Z,98469.60
2023-05-10T16:24:31.137Z,98473.81
2023-05-10T16:26:58.483Z,98473.59
2023-05-10T16:29:26.679Z,98473.94
2023-05-10T16:34:37.379Z,98473.27
2023-05-10T16:37:04.738Z,98473.02
2023-05-10T16:39:31.979Z,98472.84
2023-05-10T16:41:59.328Z,98468.46
2023-05-10T16:44:26.566Z,98472.60
2023-05-10T16:46:53.743Z,98470.09
2023-05-10T16:49:21.297Z,98473.84
2023-05-10T16:51:49.123Z,98475.30
2023-05-10T16:54:17.931Z,98474.81
2023-05-10T16:56:45.184Z,98476.66
2023-05-10T16:59:12.733Z,98480.02
2023-05-10T17:01:40.671Z,98482.23
2023-05-10T17:04:07.967Z,98483.90
2023-05-10T17:06:37.676Z,98486.46
2023-05-10T17:09:06.073Z,98489.48
2023-05-10T17:11:33.595Z,98489.55
2023-05-10T17:14:02.518Z,98490.65
2023-05-10T17:16:30.790Z,98490.38
2023-05-10T17:18:58.131Z,98492.45
2023-05-10T17:21:25.580Z,98493.40
2023-05-10T17:23:52.812Z,98495.16
2023-05-10T17:26:20.052Z,98493.02
2023-05-10T17:28:47.024Z,98497.44
2023-05-10T17:31:14.390Z,98495.92
2023-05-10T17:33:41.551Z,98500.80
2023-05-10T17:36:09.097Z,98501.58
2023-05-10T17:38:37.221Z,98505.24
2023-05-10T17:41:05.230Z,98506.70
2023-05-10T17:43:32.496Z,98503.27
2023-05-10T17:45:59.942Z,98507.89
2023-05-10T17:48:27.779Z,98506.16
2023-05-10T17:50:54.965Z,98508.98
2023-05-10T17:53:22.095Z,98509.02
2023-05-10T17:55:50.119Z,98513.04
2023-05-10T17:58:17.494Z,98512.48
2023-05-10T18:00:44.736Z,98512.73
2023-05-10T18:03:12.211Z,98515.54
2023-05-10T18:05:40.103Z,98516.92
2023-05-10T18:08:07.934Z,98517.59
2023-05-10T18:10:35.173Z,98518.27
2023-05-10T18:13:06.277Z,98522.27
2023-05-10T18:15:40.553Z,98525.73
2023-05-10T18:18:08.112Z,98528.46
2023-05-10T18:20:35.648Z,98527.65
2023-05-10T18:23:03.300Z,98530.44
2023-05-10T18:25:30.449Z,98534.64
2023-05-10T18:27:57.622Z,98535.95
2023-05-10T18:30:25.053Z,98538.75
2023-05-10T18:32:52.543Z,98541.38
2023-05-10T18:35:20.924Z,98543.92
2023-05-10T18:37:49.771Z,98548.33
2023-05-10T18:40:18.053Z,98550.95
2023-05-10T18:42:47.265Z,98551.69
2023-05-10T18:45:15.221Z,98552.59
2023-05-10T18:47:43.357Z,98556.74
2023-05-10T18:50:11.607Z,98559.25
2023-05-10T18:52:38.897Z,98564.22
2023-05-10T18:55:07.898Z,98565.02
2023-05-10T18:57:41.683Z,98569.69
2023-05-10T19:00:11.157Z,98571.40
2023-05-10T19:02:40.430Z,98576.08
2023-05-10T19:05:09.749Z,98579.93
2023-05-10T19:07:37.756Z,98581.77
2023-05-10T19:10:06.059Z,98588.50
2023-05-10T19:12:34.366Z,98586.23
2023-05-10T19:15:02.783Z,98590.99
2023-05-10T19:17:30.486Z,98591.05
2023-05-10T19:19:58.613Z,98593.02
2023-05-10T19:22:44.961Z,98592.81
2023-05-10T19:25:18.311Z,98591.30
2023-05-10T19:27:46.740Z,98586.86
2023-05-10T19:30:15.903Z,98587.50
2023-05-10T19:32:44.707Z,98587.70
2023-05-10T19:35:13.738Z,98589.76
2023-05-10T19:37:41.209Z,98586.95
2023-05-10T19:40:10.811Z,98591.69
2023-05-10T19:42:38.691Z,98592.81
2023-05-10T19:45:06.991Z,98596.14
2023-05-10T19:47:35.490Z,98595.60
2023-05-10T19:50:03.526Z,98597.29
2023-05-10T19:52:30.736Z,98597.55
2023-05-10T19:54:57.984Z,98595.40
2023-05-10T19:57:25.481Z,98598.20
2023-05-10T19:59:52.870Z,98602.59
2023-05-10T20:02:20.457Z,98602.46
2023-05-10T20:04:47.700Z,98604.48
2023-05-10T20:07:15.285Z,98605.66
2023-05-10T20:09:44.434Z,98603.46
2023-05-10T20:12:11.426Z,98607.94
2023-05-10T20:14:38.552Z,98607.66
2023-05-10T20:17:06.188Z,98614.00
2023-05-10T20:19:33.294Z,98613.08
2023-05-10T20:22:00.399Z,98610.41
2023-05-10T20:24:27.256Z,98611.74
2023-05-10T20:26:54.208Z,98612.39
2023-05-10T20:29:21.152Z,98615.91
2023-05-10T20:31:48.134Z,98621.35
2023-05-10T20:34:15.568Z,98621.29
2023-05-10T20:36:43.297Z,98624.83
2023-05-10T20:39:10.974Z,98621.59
2023-05-10T20:41:39.778Z,98621.54
2023-05-10T20:44:06.877Z,98621.73
2023-05-10T20:46:34.362Z,98627.70
2023-05-10T20:49:01.613Z,98627.02
2023-05-10T20:51:31.587Z,98629.88
2023-05-10T20:54:04.270Z,98631.23
2023-05-10T20:56:32.499Z,98629.60
2023-05-10T20:59:01.486Z,98632.52
2023-05-10T21:01:29.448Z,98631.54
2023-05-10T21:03:57.003Z,98634.85
2023-05-10T21:06:24.130Z,98633.48
2023-05-10T21:08:51.732Z,98635.89
2023-05-10T21:11:19.255Z,98635.73
2023-05-10T21:13:46.236Z,98627.45
2023-05-10T21:16:13.372Z,98629.73
2023-05-10T21:18:40.684Z,98633.95
2023-05-10T21:21:07.729Z,98635.23
2023-05-10T21:23:34.824Z,98634.59
2023-05-10T21:26:05.502Z,98633.70
2023-05-10T21:28:32.545Z,98629.88
2023-05-10T21:30:59.699Z,98630.81
2023-05-10T21:33:26.877Z,98634.67
2023-05-10T21:35:53.966Z,98630.71
2023-05-10T21:38:21.212Z,98629.18
2023-05-10T21:40:48.274Z,98632.91
2023-05-10T21:43:15.276Z,98635.95
2023-05-10T21:45:42.314Z,98637.00
2023-05-10T21:48:09.760Z,98636.95
2023-05-10T21:50:37.444Z,98637.61
2023-05-10T21:53:04.523Z,98642.54
2023-05-10T21:55:31.795Z,98643.33
2023-05-10T21:57:58.795Z,98643.32
2023-05-10T22:00:25.828Z,98646.52
2023-05-10T22:02:52.764Z,98648.30
2023-05-10T22:05:20.078Z,98646.25
2023-05-10T22:07:47.353Z,98646.10
2023-05-10T22:10:14.456Z,98648.36
2023-05-10T22:12:41.853Z,98653.59
2023-05-10T22:15:10.658Z,98654.17
2023-05-10T22:17:40.209Z,98657.84
2023-05-10T22:20:08.717Z,98663.82
2023-05-10T22:22:37.031Z,98663.33
2023-05-10T22:25:08.000Z,98664.80
2023-05-10T22:27:35.583Z,98665.29
2023-05-10T22:30:03.381Z,98667.56
2023-05-10T22:32:32.255Z,98664.95
2023-05-10T22:34:59.591Z,98666.19
2023-05-10T22:37:27.315Z,98667.86
2023-05-10T22:39:54.635Z,98669.93
2023-05-10T22:42:21.756Z,98670.81
2023-05-10T22:44:48.876Z,98671.61
2023-05-10T22:47:16.702Z,98676.52
2023-05-10T22:49:43.882Z,98680.57
2023-05-10T22:52:11.199Z,98683.80
2023-05-10T22:54:38.231Z,98683.77
2023-05-10T22:57:06.075Z,98681.63
2023-05-10T22:59:33.487Z,98684.21
2023-05-10T23:02:03.662Z,98686.82
2023-05-10T23:04:30.971Z,98682.39
2023-05-10T23:06:58.450Z,98683.15
2023-05-10T23:09:25.788Z,98684.78
2023-05-10T23:11:53.161Z,98684.38
2023-05-10T23:14:20.269Z,98682.10
2023-05-10T23:16:47.517Z,98683.59
2023-05-10T23:19:14.809Z,98689.27
2023-05-10T23:21:41.952Z,98690.33
2023-05-10T23:24:09.370Z,98685.69
2023-05-10T23:26:36.725Z,98685.48
2023-05-10T23:29:04.270Z,98685.51
2023-05-10T23:31:31.890Z,98685.45
2023-05-10T23:33:59.196Z,98684.60
2023-05-10T23:36:26.352Z,98679.20
2023-05-10T23:38:53.310Z,98683.13
2023-05-10T23:41:20.462Z,98679.73
2023-05-10T23:43:47.607Z,98682.04
2023-05-10T23:46:15.999Z,98682.83
2023-05-10T23:48:43.440Z,98685.20
2023-05-10T23:51:10.559Z,98684.78
2023-05-10T23:53:38.209Z,98684.83
2023-05-10T23:56:06.885Z,98687.46
2023-05-10T23:58:39.184Z,98689.68
